Frojdi II — ZAD4L — position and weather

sailwx.info

Track history (hours):
 
Tides and Currents Weather Stations Pressure Air Temp Water Temp Dewpoint Dewpoint Depression Visibility Wind Speed Wind Dir Waves Ship Positions

Frojdi II

Last reported at 2017-Oct-24 20:18 UTC. Time now 2017-Nov-18 12:21 UTC.
Position N 44°30' E 012°26'.
Warning: this ship's position is 24 days out of date.

Length 75 m; draft 3.4 m.

Type: Cargo ship. MMSI: 201100115.

Date/timePositionNaut miles runAvg speedWind from/ knotsBaromVisibWave heightAir tempDewpointWater temp
2017-Oct-24 20:18N 44°30' E 012°26'0 0.0
2017-Oct-24 20:00N 44°30' E 012°26'0 0.0
2017-Oct-24 19:24N 44°30' E 012°26'0 0.0
2017-Oct-24 14:06N 44°30' E 012°26'0 0.0
2017-Oct-24 13:57N 44°30' E 012°26'0 0.0
2017-Oct-24 13:12N 44°30' E 012°26'0 0.0
2017-Oct-24 13:00N 44°30' E 012°26'7 4.8
2017-Oct-24 11:33N 44°29' E 012°17'6 0.1
2017-Oct-22 13:18N 44°30' E 012°26'0 0.0
2017-Oct-22 12:54N 44°30' E 012°26'0 0.0
2017-Oct-22 12:30N 44°30' E 012°26'0 0.0
2017-Oct-22 10:58N 44°30' E 012°26'0 0.0
2017-Oct-22 09:09N 44°30' E 012°26'0 0.1
2017-Oct-22 08:51N 44°30' E 012°26'0 0.0
2017-Oct-22 07:04N 44°30' E 012°26'0 0.0
2017-Oct-22 06:59N 44°30' E 012°26'0 0.0
2017-Oct-22 05:45N 44°30' E 012°26'0 0.0
2017-Oct-22 05:21N 44°30' E 012°26'0 0.0
2017-Oct-22 04:57N 44°30' E 012°26'  
2017-Oct-19 16:17N 44°15' E 013°17'50 7.0
2017-Oct-19 09:10N 43°49' E 014°16'2 7.1
2017-Oct-19 08:55N 43°49' E 014°19'3 7.1
2017-Oct-19 08:30N 43°48' E 014°23'3 7.1
2017-Oct-19 08:00N 43°46' E 014°27'4 7.1
2017-Oct-19 07:23N 43°44' E 014°33'3 7.1
2017-Oct-19 07:00N 43°43' E 014°36'259 5.5
2017-Oct-17 07:44N 41°18' E 019°27'0 0.0
2017-Oct-17 07:02N 41°18' E 019°27'0 0.0
2017-Oct-17 06:44N 41°18' E 019°27'  
Track history (hours):
 
Tides and Currents Weather Stations Pressure Air Temp Water Temp Dewpoint Dewpoint Depression Visibility Wind Speed Wind Dir Waves Ship Positions

Frojdi II

Last reported at 2017-Oct-24 20:18 UTC. Time now 2017-Nov-18 12:21 UTC.
Position N 44°30' E 012°26'.
Warning: this ship's position is 24 days out of date.

Length 75 m; draft 3.4 m.

Type: Cargo ship. MMSI: 201100115.

Date/timePositionNaut miles runAvg speedWind from/ knotsBaromVisibWave heightAir tempDewpointWater temp
2017-Oct-24 20:18N 44°30' E 012°26'0 0.0
2017-Oct-24 20:00N 44°30' E 012°26'0 0.0
2017-Oct-24 19:24N 44°30' E 012°26'0 0.0
2017-Oct-24 14:06N 44°30' E 012°26'0 0.0
2017-Oct-24 13:57N 44°30' E 012°26'0 0.0
2017-Oct-24 13:12N 44°30' E 012°26'0 0.0
2017-Oct-24 13:00N 44°30' E 012°26'7 4.8
2017-Oct-24 11:33N 44°29' E 012°17'6 0.1
2017-Oct-22 13:18N 44°30' E 012°26'0 0.0
2017-Oct-22 12:54N 44°30' E 012°26'0 0.0
2017-Oct-22 12:30N 44°30' E 012°26'0 0.0
2017-Oct-22 10:58N 44°30' E 012°26'0 0.0
2017-Oct-22 09:09N 44°30' E 012°26'0 0.1
2017-Oct-22 08:51N 44°30' E 012°26'0 0.0
2017-Oct-22 07:04N 44°30' E 012°26'0 0.0
2017-Oct-22 06:59N 44°30' E 012°26'0 0.0
2017-Oct-22 05:45N 44°30' E 012°26'0 0.0
2017-Oct-22 05:21N 44°30' E 012°26'0 0.0
2017-Oct-22 04:57N 44°30' E 012°26'  
2017-Oct-19 16:17N 44°15' E 013°17'50 7.0
2017-Oct-19 09:10N 43°49' E 014°16'2 7.1
2017-Oct-19 08:55N 43°49' E 014°19'3 7.1
2017-Oct-19 08:30N 43°48' E 014°23'3 7.1
2017-Oct-19 08:00N 43°46' E 014°27'4 7.1
2017-Oct-19 07:23N 43°44' E 014°33'3 7.1
2017-Oct-19 07:00N 43°43' E 014°36'259 5.5
2017-Oct-17 07:44N 41°18' E 019°27'0 0.0
2017-Oct-17 07:02N 41°18' E 019°27'0 0.0
2017-Oct-17 06:44N 41°18' E 019°27'  

Dump ship's entire track history